createdAt,value
2022-12-17T00:01:51.271Z,0.07
2022-12-17T00:04:37.122Z,0.02
2022-12-17T00:07:22.200Z,0.03
2022-12-17T00:10:07.033Z,0.06
2022-12-17T00:12:54.053Z,0.05
2022-12-17T00:15:41.657Z,0.04
2022-12-17T00:18:26.926Z,0.02
2022-12-17T00:21:16.904Z,0.02
2022-12-17T00:24:02.769Z,-0.02
2022-12-17T00:26:48.044Z,-0.07
2022-12-17T00:29:33.513Z,-0.11
2022-12-17T00:32:18.701Z,-0.09
2022-12-17T00:35:04.019Z,-0.08
2022-12-17T00:37:49.175Z,-0.06
2022-12-17T00:40:33.877Z,-0.08
2022-12-17T00:43:23.461Z,-0.12
2022-12-17T00:46:08.801Z,-0.11
2022-12-17T00:48:55.005Z,-0.11
2022-12-17T00:51:41.201Z,-0.09
2022-12-17T00:54:26.451Z,-0.08
2022-12-17T00:57:11.818Z,-0.10
2022-12-17T00:59:56.617Z,-0.08
2022-12-17T01:02:42.158Z,-0.04
2022-12-17T01:05:27.355Z,-0.03
2022-12-17T01:08:12.063Z,-0.03
2022-12-17T01:10:56.835Z,-0.02
2022-12-17T01:13:47.091Z,-0.03
2022-12-17T01:16:33.504Z,-0.09
2022-12-17T01:19:18.984Z,-0.08
2022-12-17T01:22:04.924Z,-0.08
2022-12-17T01:24:50.002Z,-0.12
2022-12-17T01:27:35.173Z,-0.10
2022-12-17T01:30:20.023Z,-0.11
2022-12-17T01:33:05.025Z,-0.10
2022-12-17T01:35:49.769Z,-0.09
2022-12-17T01:38:37.168Z,-0.08
2022-12-17T01:41:23.584Z,-0.07
2022-12-17T01:44:08.919Z,-0.10
2022-12-17T01:46:58.845Z,-0.13
2022-12-17T01:49:45.273Z,-0.15
2022-12-17T01:52:34.065Z,-0.21
2022-12-17T01:55:21.447Z,-0.24
2022-12-17T01:58:06.847Z,-0.25
2022-12-17T02:00:52.167Z,-0.24
2022-12-17T02:03:38.291Z,-0.25
2022-12-17T02:06:30.905Z,-0.22
2022-12-17T02:09:36.112Z,-0.20
2022-12-17T02:13:08.898Z,-0.19
2022-12-17T02:16:02.753Z,-0.20
2022-12-17T02:19:14.527Z,-0.21
2022-12-17T02:22:04.573Z,-0.23
2022-12-17T02:24:58.340Z,-0.20
2022-12-17T02:27:44.297Z,-0.21
2022-12-17T02:30:29.726Z,-0.20
2022-12-17T02:33:18.664Z,-0.18
2022-12-17T02:36:12.078Z,-0.21
2022-12-17T02:38:56.966Z,-0.22
2022-12-17T02:41:54.094Z,-0.24
2022-12-17T02:44:40.260Z,-0.27
2022-12-17T02:47:28.101Z,-0.26
2022-12-17T02:50:13.516Z,-0.26
2022-12-17T02:53:04.631Z,-0.29
2022-12-17T02:55:50.473Z,-0.29
2022-12-17T02:58:35.278Z,-0.27
2022-12-17T03:01:20.264Z,-0.31
2022-12-17T03:04:05.497Z,-0.32
2022-12-17T03:06:50.349Z,-0.32
2022-12-17T03:09:35.154Z,-0.35
2022-12-17T03:12:20.409Z,-0.36
2022-12-17T03:15:05.393Z,-0.37
2022-12-17T03:17:50.608Z,-0.36
2022-12-17T03:20:35.685Z,-0.35
2022-12-17T03:23:25.996Z,-0.36
2022-12-17T03:26:10.892Z,-0.34
2022-12-17T03:28:56.376Z,-0.37
2022-12-17T03:31:41.781Z,-0.36
2022-12-17T03:34:26.705Z,-0.37
2022-12-17T03:37:11.649Z,-0.36
2022-12-17T03:39:56.587Z,-0.37
2022-12-17T03:42:41.486Z,-0.36
2022-12-17T03:45:26.670Z,-0.39
2022-12-17T03:48:26.413Z,-0.40
2022-12-17T03:51:12.704Z,-0.42
2022-12-17T03:53:58.612Z,-0.46
2022-12-17T03:56:43.737Z,-0.51
2022-12-17T03:59:39.550Z,-0.52
2022-12-17T04:02:24.555Z,-0.57
2022-12-17T04:05:12.699Z,-0.62
2022-12-17T04:08:00.037Z,-0.66
2022-12-17T04:10:44.906Z,-0.68
2022-12-17T04:13:29.673Z,-0.69
2022-12-17T04:16:14.495Z,-0.69
2022-12-17T04:18:59.469Z,-0.72
2022-12-17T04:21:44.459Z,-0.73
2022-12-17T04:24:29.343Z,-0.75
2022-12-17T04:27:14.135Z,-0.76
2022-12-17T04:29:59.602Z,-0.78
2022-12-17T04:32:44.823Z,-0.80
2022-12-17T04:35:30.047Z,-0.81
2022-12-17T04:38:15.063Z,-0.79
2022-12-17T04:41:00.118Z,-0.78
2022-12-17T04:43:44.957Z,-0.77
2022-12-17T04:46:33.078Z,-0.77
2022-12-17T04:49:28.458Z,-0.77
2022-12-17T04:52:13.218Z,-0.73
2022-12-17T04:54:58.063Z,-0.72
2022-12-17T04:57:42.976Z,-0.70
2022-12-17T05:00:28.725Z,-0.69
2022-12-17T05:03:13.795Z,-0.67
2022-12-17T05:05:58.653Z,-0.68
2022-12-17T05:08:44.013Z,-0.68
2022-12-17T05:11:28.870Z,-0.68
2022-12-17T05:14:13.793Z,-0.68
2022-12-17T05:17:00.729Z,-0.67
2022-12-17T05:19:48.563Z,-0.65
2022-12-17T05:22:33.338Z,-0.65
2022-12-17T05:25:18.214Z,-0.66
2022-12-17T05:28:05.272Z,-0.65
2022-12-17T05:30:50.095Z,-0.67
2022-12-17T05:33:35.319Z,-0.68
2022-12-17T05:36:21.373Z,-0.68
2022-12-17T05:39:07.868Z,-0.70
2022-12-17T05:41:53.114Z,-0.68
2022-12-17T05:44:38.484Z,-0.68
2022-12-17T05:47:24.321Z,-0.66
2022-12-17T05:50:09.197Z,-0.66
2022-12-17T05:52:53.905Z,-0.67
2022-12-17T05:55:38.726Z,-0.68
2022-12-17T05:58:25.957Z,-0.69
2022-12-17T06:01:15.765Z,-0.71
2022-12-17T06:04:01.268Z,-0.72
2022-12-17T06:06:46.609Z,-0.71
2022-12-17T06:09:31.448Z,-0.71
2022-12-17T06:12:16.443Z,-0.69
2022-12-17T06:15:01.452Z,-0.72
2022-12-17T06:17:46.615Z,-0.73
2022-12-17T06:20:32.101Z,-0.75
2022-12-17T06:23:18.673Z,-0.75
2022-12-17T06:26:03.591Z,-0.79
2022-12-17T06:28:48.332Z,-0.80
2022-12-17T06:31:33.229Z,-0.79
2022-12-17T06:34:18.166Z,-0.80
2022-12-17T06:37:04.384Z,-0.81
2022-12-17T06:39:49.278Z,-0.81
2022-12-17T06:42:34.409Z,-0.81
2022-12-17T06:45:19.666Z,-0.82
2022-12-17T06:48:04.446Z,-0.81
2022-12-17T06:50:49.430Z,-0.86
2022-12-17T06:53:34.731Z,-0.87
2022-12-17T06:56:19.941Z,-0.88
2022-12-17T06:59:04.867Z,-0.87
2022-12-17T07:01:50.048Z,-0.87
2022-12-17T07:04:35.257Z,-0.86
2022-12-17T07:07:20.144Z,-0.86
2022-12-17T07:10:12.166Z,-0.87
2022-12-17T07:12:58.895Z,-0.88
2022-12-17T07:15:43.638Z,-0.87
2022-12-17T07:18:28.423Z,-0.85
2022-12-17T07:21:13.364Z,-0.84
2022-12-17T07:24:00.337Z,-0.82
2022-12-17T07:26:45.245Z,-0.83
2022-12-17T07:29:30.021Z,-0.81
2022-12-17T07:32:15.383Z,-0.81
2022-12-17T07:35:00.875Z,-0.80
2022-12-17T07:37:45.564Z,-0.78
2022-12-17T07:40:30.899Z,-0.77
2022-12-17T07:43:15.742Z,-0.76
2022-12-17T07:46:00.708Z,-0.75
2022-12-17T07:48:45.544Z,-0.75
2022-12-17T07:51:30.482Z,-0.75
2022-12-17T07:54:15.247Z,-0.75
2022-12-17T07:57:00.273Z,-0.74
2022-12-17T07:59:45.057Z,-0.73
2022-12-17T08:02:30.034Z,-0.73
2022-12-17T08:05:15.450Z,-0.72
2022-12-17T08:08:00.548Z,-0.71
2022-12-17T08:10:45.385Z,-0.70
2022-12-17T08:13:30.042Z,-0.71
2022-12-17T08:16:18.121Z,-0.72
2022-12-17T08:19:03.413Z,-0.71
2022-12-17T08:21:48.079Z,-0.73
2022-12-17T08:24:32.953Z,-0.73
2022-12-17T08:27:17.882Z,-0.72
2022-12-17T08:30:05.586Z,-0.76
2022-12-17T08:32:50.906Z,-0.75
2022-12-17T08:35:35.909Z,-0.74
2022-12-17T08:38:22.844Z,-0.75
2022-12-17T08:41:08.079Z,-0.75
2022-12-17T08:43:52.870Z,-0.69
2022-12-17T08:46:37.766Z,-0.67
2022-12-17T08:49:22.537Z,-0.69
2022-12-17T08:52:07.473Z,-0.68
2022-12-17T08:54:52.195Z,-0.66
2022-12-17T08:57:37.162Z,-0.62
2022-12-17T09:00:23.125Z,-0.64
2022-12-17T09:03:08.157Z,-0.65
2022-12-17T09:05:53.136Z,-0.65
2022-12-17T09:08:38.293Z,-0.63
2022-12-17T09:11:23.523Z,-0.63
2022-12-17T09:14:08.225Z,-0.63
2022-12-17T09:16:53.069Z,-0.63
2022-12-17T09:19:37.971Z,-0.65
2022-12-17T09:22:23.087Z,-0.68
2022-12-17T09:25:08.057Z,-0.70
2022-12-17T09:27:52.838Z,-0.75
2022-12-17T09:30:37.766Z,-0.77
2022-12-17T09:33:22.935Z,-0.77
2022-12-17T09:36:07.760Z,-0.77
2022-12-17T09:38:52.808Z,-0.76
2022-12-17T09:41:52.284Z,-0.74
2022-12-17T09:44:43.184Z,-0.67
2022-12-17T09:47:49.473Z,-0.64
2022-12-17T09:50:35.173Z,-0.62
2022-12-17T09:53:23.532Z,-0.59
2022-12-17T09:56:10.416Z,-0.58
2022-12-17T09:58:58.320Z,-0.57
2022-12-17T10:01:49.950Z,-0.55
2022-12-17T10:05:01.597Z,-0.52
2022-12-17T10:07:54.679Z,-0.49
2022-12-17T10:10:45.742Z,-0.48
2022-12-17T10:13:35.490Z,-0.46
2022-12-17T10:16:21.108Z,-0.44
2022-12-17T10:19:08.212Z,-0.44
2022-12-17T10:21:57.133Z,-0.44
2022-12-17T10:24:42.031Z,-0.42
2022-12-17T10:27:30.652Z,-0.38
2022-12-17T10:30:15.487Z,-0.38
2022-12-17T10:33:00.741Z,-0.40
2022-12-17T10:35:54.210Z,-0.34
2022-12-17T10:38:47.820Z,-0.30
2022-12-17T10:41:46.197Z,-0.31
2022-12-17T10:44:44.428Z,-0.31
2022-12-17T10:47:32.398Z,-0.27
2022-12-17T10:50:27.682Z,-0.28
2022-12-17T10:53:12.993Z,-0.32
2022-12-17T10:56:06.891Z,-0.29
2022-12-17T10:58:53.224Z,-0.26
2022-12-17T11:01:41.498Z,-0.20
2022-12-17T11:04:47.048Z,-0.24
2022-12-17T11:07:57.497Z,-0.23
2022-12-17T11:10:46.285Z,-0.22
2022-12-17T11:13:36.081Z,-0.25
2022-12-17T11:16:25.545Z,-0.30
2022-12-17T11:19:19.857Z,-0.20
2022-12-17T11:22:10.813Z,-0.13
2022-12-17T11:25:03.870Z,-0.09
2022-12-17T11:27:56.281Z,-0.06
2022-12-17T11:30:41.826Z,-0.04
2022-12-17T11:33:36.551Z,-0.04
2022-12-17T11:36:38.963Z,-0.02
2022-12-17T11:39:54.852Z,-0.01
2022-12-17T11:42:58.284Z,0.03
2022-12-17T11:46:17.493Z,-0.02
2022-12-17T11:49:10.912Z,0.02
2022-12-17T11:52:05.269Z,-0.01
2022-12-17T11:54:57.524Z,0.04
2022-12-17T11:57:52.551Z,0.02
2022-12-17T12:00:39.663Z,-0.01
2022-12-17T12:03:51.043Z,0.06
2022-12-17T12:06:47.704Z,0.11
2022-12-17T12:09:47.206Z,0.11
2022-12-17T12:12:52.456Z,0.06
2022-12-17T12:15:51.303Z,0.02
2022-12-17T12:18:51.092Z,0.01
2022-12-17T12:21:48.299Z,0.05
2022-12-17T12:24:57.656Z,0.09
2022-12-17T12:27:57.599Z,0.12
2022-12-17T12:30:46.661Z,0.08
2022-12-17T12:34:02.613Z,0.14
2022-12-17T12:36:48.499Z,0.12
2022-12-17T12:39:43.027Z,0.13
2022-12-17T12:42:39.952Z,0.09
2022-12-17T12:45:32.041Z,0.14
2022-12-17T12:48:25.247Z,0.13
2022-12-17T12:51:34.115Z,0.17
2022-12-17T12:54:35.321Z,0.17
2022-12-17T12:57:20.407Z,0.14
2022-12-17T13:00:08.247Z,0.11
2022-12-17T13:02:53.629Z,0.05
2022-12-17T13:05:35.294Z,0.05
2022-12-17T13:08:03.115Z,0.03
2022-12-17T13:10:31.656Z,0.05
2022-12-17T13:13:10.600Z,-0.01
2022-12-17T13:15:42.651Z,-0.01
2022-12-17T13:18:24.220Z,-0.07
2022-12-17T13:21:25.271Z,-0.05
2022-12-17T13:23:51.890Z,-0.05
2022-12-17T13:26:31.279Z,-0.04
2022-12-17T13:29:11.074Z,-0.07
2022-12-17T13:31:55.432Z,-0.05
2022-12-17T13:34:27.629Z,-0.06
2022-12-17T13:37:06.382Z,-0.05
2022-12-17T13:40:05.179Z,-0.04
2022-12-17T13:42:34.883Z,-0.08
2022-12-17T13:45:02.710Z,-0.12
2022-12-17T13:47:35.499Z,-0.13
2022-12-17T13:50:35.870Z,-0.12
2022-12-17T13:53:13.167Z,-0.14
2022-12-17T13:55:40.282Z,-0.13
2022-12-17T13:58:20.123Z,-0.16
2022-12-17T14:00:46.679Z,-0.17
2022-12-17T14:03:13.419Z,-0.18
2022-12-17T14:05:44.199Z,-0.18
2022-12-17T14:08:16.234Z,-0.21
2022-12-17T14:11:14.616Z,-0.22
2022-12-17T14:13:43.499Z,-0.26
2022-12-17T14:16:10.137Z,-0.31
2022-12-17T14:18:40.379Z,-0.38
2022-12-17T14:21:09.338Z,-0.41
2022-12-17T14:23:36.059Z,-0.40
2022-12-17T14:26:03.079Z,-0.39
2022-12-17T14:28:36.004Z,-0.40
2022-12-17T14:31:26.572Z,-0.36
2022-12-17T14:34:11.188Z,-0.32
2022-12-17T14:36:40.727Z,-0.34
2022-12-17T14:39:30.085Z,-0.33
2022-12-17T14:42:17.760Z,-0.39
2022-12-17T14:44:55.164Z,-0.49
2022-12-17T14:47:25.348Z,-0.59
2022-12-17T14:50:07.543Z,-0.65
2022-12-17T14:52:41.736Z,-0.66
2022-12-17T14:55:28.394Z,-0.64
2022-12-17T14:58:17.335Z,-0.67
2022-12-17T15:01:04.646Z,-0.66
2022-12-17T15:03:33.733Z,-0.67
2022-12-17T15:06:06.758Z,-0.72
2022-12-17T15:08:41.578Z,-0.80
2022-12-17T15:11:12.477Z,-0.80
2022-12-17T15:13:49.253Z,-0.83
2022-12-17T15:16:19.933Z,-0.89
2022-12-17T15:18:46.601Z,-0.84
2022-12-17T15:21:20.017Z,-0.89
2022-12-17T15:23:47.804Z,-0.87
2022-12-17T15:26:15.308Z,-0.90
2022-12-17T15:28:45.743Z,-0.85
2022-12-17T15:31:14.231Z,-0.92
2022-12-17T15:33:41.634Z,-0.98
2022-12-17T15:36:13.320Z,-1.04
2022-12-17T15:38:40.755Z,-1.03
2022-12-17T15:41:26.122Z,-1.00
2022-12-17T15:43:52.963Z,-1.00
2022-12-17T15:46:19.754Z,-1.04
2022-12-17T15:48:50.626Z,-1.03
2022-12-17T15:51:21.047Z,-1.10
2022-12-17T15:53:50.936Z,-1.06
2022-12-17T15:56:24.695Z,-1.10
2022-12-17T15:58:51.625Z,-1.10
2022-12-17T16:01:19.121Z,-1.12
2022-12-17T16:03:46.073Z,-1.12
2022-12-17T16:06:13.353Z,-1.15
2022-12-17T16:08:40.958Z,-1.19
2022-12-17T16:11:09.349Z,-1.21
2022-12-17T16:13:37.089Z,-1.16
2022-12-17T16:16:04.537Z,-1.15
2022-12-17T16:18:31.444Z,-1.13
2022-12-17T16:21:05.028Z,-1.15
2022-12-17T16:23:31.539Z,-1.16
2022-12-17T16:25:59.442Z,-1.23
2022-12-17T16:28:26.816Z,-1.23
2022-12-17T16:31:08.864Z,-1.21
2022-12-17T16:33:38.539Z,-1.20
2022-12-17T16:36:09.440Z,-1.22
2022-12-17T16:38:36.724Z,-1.19
2022-12-17T16:41:04.012Z,-1.20
2022-12-17T16:43:36.068Z,-1.24
2022-12-17T16:46:06.452Z,-1.30
2022-12-17T16:48:39.546Z,-1.32
2022-12-17T16:51:23.946Z,-1.36
2022-12-17T16:53:54.830Z,-1.35
2022-12-17T16:56:25.127Z,-1.38
2022-12-17T16:58:52.678Z,-1.34
2022-12-17T17:01:21.508Z,-1.36
2022-12-17T17:03:49.033Z,-1.35
2022-12-17T17:06:17.598Z,-1.37
2022-12-17T17:08:44.335Z,-1.40
2022-12-17T17:11:14.556Z,-1.37
2022-12-17T17:13:42.101Z,-1.37
2022-12-17T17:16:10.158Z,-1.35
2022-12-17T17:18:37.724Z,-1.37
2022-12-17T17:21:26.150Z,-1.36
2022-12-17T17:23:57.906Z,-1.34
2022-12-17T17:26:24.621Z,-1.36
2022-12-17T17:28:51.842Z,-1.38
2022-12-17T17:31:19.334Z,-1.39
2022-12-17T17:33:48.757Z,-1.39
2022-12-17T17:36:28.095Z,-1.38
2022-12-17T17:38:59.948Z,-1.38
2022-12-17T17:41:29.297Z,-1.36
2022-12-17T17:44:07.922Z,-1.48
2022-12-17T17:46:35.081Z,-1.52
2022-12-17T17:49:03.202Z,-1.53
2022-12-17T17:52:07.335Z,-1.53
2022-12-17T17:54:19.171Z,-1.57
2022-12-17T17:56:45.636Z,-1.58
2022-12-17T17:59:15.621Z,-1.55
2022-12-17T18:01:44.697Z,-1.55
2022-12-17T18:04:13.503Z,-1.51
2022-12-17T18:06:57.489Z,-1.49
2022-12-17T18:09:28.501Z,-1.49
2022-12-17T18:11:54.933Z,-1.49
2022-12-17T18:14:21.420Z,-1.52
2022-12-17T18:16:48.593Z,-1.53
2022-12-17T18:19:14.965Z,-1.51
2022-12-17T18:21:41.788Z,-1.50
2022-12-17T18:24:13.407Z,-1.50
2022-12-17T18:26:42.565Z,-1.50
2022-12-17T18:29:16.636Z,-1.52
2022-12-17T18:31:48.471Z,-1.56
2022-12-17T18:34:21.273Z,-1.58
2022-12-17T18:36:48.722Z,-1.59
2022-12-17T18:39:24.161Z,-1.63
2022-12-17T18:42:10.326Z,-1.64
2022-12-17T18:44:39.604Z,-1.66
2022-12-17T18:47:06.602Z,-1.66
2022-12-17T18:49:33.415Z,-1.69
2022-12-17T18:51:59.909Z,-1.69
2022-12-17T18:54:29.149Z,-1.66
2022-12-17T18:57:01.850Z,-1.69
2022-12-17T18:59:30.439Z,-1.67
2022-12-17T19:01:57.884Z,-1.73
2022-12-17T19:04:26.002Z,-1.76
2022-12-17T19:06:53.750Z,-1.78
2022-12-17T19:09:34.383Z,-1.79
2022-12-17T19:12:01.838Z,-1.83
2022-12-17T19:14:29.435Z,-1.92
2022-12-17T19:16:58.080Z,-1.94
2022-12-17T19:19:25.281Z,-1.96
2022-12-17T19:21:54.947Z,-1.94
2022-12-17T19:24:22.632Z,-1.93
2022-12-17T19:26:50.266Z,-1.95
2022-12-17T19:29:18.423Z,-1.93
2022-12-17T19:31:45.878Z,-1.94
2022-12-17T19:34:15.321Z,-1.93
2022-12-17T19:36:42.992Z,-1.99
2022-12-17T19:39:14.498Z,-1.99
2022-12-17T19:41:40.949Z,-2.02
2022-12-17T19:44:11.584Z,-2.00
2022-12-17T19:46:38.131Z,-1.99
2022-12-17T19:49:05.210Z,-2.01
2022-12-17T19:51:32.641Z,-2.02
2022-12-17T19:54:06.498Z,-2.03
2022-12-17T19:56:34.848Z,-2.01
2022-12-17T19:59:04.034Z,-2.01
2022-12-17T20:01:40.087Z,-2.00
2022-12-17T20:04:06.742Z,-2.06
2022-12-17T20:06:34.979Z,-2.08
2022-12-17T20:09:02.688Z,-2.05
2022-12-17T20:11:35.546Z,-2.06
2022-12-17T20:14:05.322Z,-2.06
2022-12-17T20:16:38.043Z,-2.10
2022-12-17T20:19:07.554Z,-2.14
2022-12-17T20:21:34.177Z,-2.16
2022-12-17T20:24:00.719Z,-2.19
2022-12-17T20:26:30.120Z,-2.21
2022-12-17T20:28:59.880Z,-2.21
2022-12-17T20:31:27.896Z,-2.20
2022-12-17T20:33:55.136Z,-2.21
2022-12-17T20:36:23.008Z,-2.22
2022-12-17T20:38:49.827Z,-2.20
2022-12-17T20:41:19.722Z,-2.22
2022-12-17T20:43:46.815Z,-2.24
2022-12-17T20:46:13.874Z,-2.23
2022-12-17T20:48:42.740Z,-2.24
2022-12-17T20:51:16.382Z,-2.26
2022-12-17T20:53:43.473Z,-2.36
2022-12-17T20:56:12.514Z,-2.40
2022-12-17T20:58:40.353Z,-2.42
2022-12-17T21:01:11.599Z,-2.44
2022-12-17T21:03:38.681Z,-2.41
2022-12-17T21:06:10.437Z,-2.38
2022-12-17T21:08:38.088Z,-2.39
2022-12-17T21:11:05.367Z,-2.41
2022-12-17T21:13:32.104Z,-2.41
2022-12-17T21:16:03.951Z,-2.34
2022-12-17T21:18:31.313Z,-2.39
2022-12-17T21:21:13.592Z,-2.39
2022-12-17T21:23:40.928Z,-2.40
2022-12-17T21:26:16.348Z,-2.43
2022-12-17T21:28:47.753Z,-2.48
2022-12-17T21:31:22.979Z,-2.48
2022-12-17T21:33:50.951Z,-2.46
2022-12-17T21:36:20.350Z,-2.43
2022-12-17T21:38:47.846Z,-2.43
2022-12-17T21:41:16.772Z,-2.47
2022-12-17T21:43:43.423Z,-2.48
2022-12-17T21:46:11.372Z,-2.48
2022-12-17T21:48:42.181Z,-2.50
2022-12-17T21:51:11.942Z,-2.51
2022-12-17T21:53:42.752Z,-2.56
2022-12-17T21:56:18.172Z,-2.57
2022-12-17T21:58:46.568Z,-2.60
2022-12-17T22:01:19.933Z,-2.67
2022-12-17T22:03:51.583Z,-2.70
2022-12-17T22:06:24.484Z,-2.73
2022-12-17T22:09:04.491Z,-2.77
2022-12-17T22:11:36.290Z,-2.82
2022-12-17T22:14:08.026Z,-2.86
2022-12-17T22:16:39.219Z,-2.86
2022-12-17T22:19:07.159Z,-2.85
2022-12-17T22:21:39.222Z,-2.82
2022-12-17T22:24:06.490Z,-2.83
2022-12-17T22:26:33.990Z,-2.86
2022-12-17T22:29:00.828Z,-2.88
2022-12-17T22:31:45.865Z,-2.94
2022-12-17T22:35:07.372Z,-2.97
2022-12-17T22:39:12.668Z,-2.97
2022-12-17T22:44:35.295Z,-2.97
2022-12-17T22:44:42.778Z,-2.96
2022-12-17T22:45:41.808Z,-3.02
2022-12-17T22:48:10.132Z,-3.00
2022-12-17T22:50:38.128Z,-3.00
2022-12-17T22:53:13.662Z,-3.03
2022-12-17T22:55:40.496Z,-3.04
2022-12-17T22:58:07.263Z,-3.05
2022-12-17T23:00:36.143Z,-3.02
2022-12-17T23:03:03.791Z,-2.99
2022-12-17T23:05:30.846Z,-2.97
2022-12-17T23:07:57.711Z,-2.96
2022-12-17T23:10:25.621Z,-3.00
2022-12-17T23:12:56.639Z,-2.99
2022-12-17T23:15:30.104Z,-2.99
2022-12-17T23:18:02.146Z,-3.06
2022-12-17T23:20:31.274Z,-3.11
2022-12-17T23:22:58.196Z,-3.13
2022-12-17T23:25:25.519Z,-3.14
2022-12-17T23:27:52.750Z,-3.14
2022-12-17T23:30:20.534Z,-3.15
2022-12-17T23:32:47.054Z,-3.16
2022-12-17T23:35:13.949Z,-3.16
2022-12-17T23:37:40.938Z,-3.19
2022-12-17T23:40:11.906Z,-3.16
2022-12-17T23:42:38.390Z,-3.19
2022-12-17T23:45:07.129Z,-3.19
2022-12-17T23:47:33.786Z,-3.21
2022-12-17T23:50:03.421Z,-3.21
2022-12-17T23:52:29.881Z,-3.16
2022-12-17T23:54:56.383Z,-3.18
2022-12-17T23:57:22.924Z,-3.24
2022-12-17T23:59:49.293Z,-3.22
